| time (UTC) | temp F | wind direction | speed MPH | gust MPH | rain 1hr in | rain 24hr in | rain mn in | humidity % | barometer mb |
| 20260506113004 | 48 | 205 | 10.0 | 25.0 | 0.00 | 0.00 | 0.00 | 92 | 984.2 |
| 20260506111600 | 48 | 281 | 0.0 | 5.0 | 0.00 | 0.00 | 0.00 | 92 | 983.7 |
| 20260506110100 | 50 | 310 | 3.0 | 17.0 | 0.00 | 0.00 | 0.00 | 86 | 983.7 |
| 20260506104606 | 53 | 137 | 1.0 | 4.0 | 0.00 | 0.00 | 0.00 | 88 | 982.8 |
| 20260506103057 | 53 | 195 | 1.0 | 5.0 | 0.00 | 0.00 | 0.00 | 87 | 983.0 |
| 20260506101555 | 53 | 137 | 0.0 | 6.0 | 0.00 | 0.00 | 0.00 | 87 | 983.3 |
| 20260506100055 | 53 | 60 | 1.0 | 7.0 | 0.00 | 0.00 | 0.00 | 87 | 983.4 |
| 20260506094555 | 54 | 259 | 1.0 | 6.0 | 0.00 | 0.00 | 0.00 | 86 | 983.3 |
| 20260506093055 | 54 | 212 | 0.0 | 8.0 | 0.00 | 0.00 | 0.00 | 83 | 983.2 |
| 20260506091559 | 55 | 128 | 0.0 | 3.0 | 0.00 | 0.00 | 0.00 | 82 | 983.1 |
| 20260506090059 | 54 | 92 | 1.0 | 5.0 | 0.00 | 0.00 | 0.00 | 82 | 983.1 |
| 20260506084552 | 54 | 79 | 0.0 | 4.0 | 0.00 | 0.00 | 0.00 | 82 | 983.1 |
| 20260506083050 | 54 | 98 | 3.0 | 6.0 | 0.00 | 0.00 | 0.00 | 81 | 983.2 |
| 20260506081549 | 55 | 100 | 4.0 | 9.0 | 0.00 | 0.00 | 0.00 | 80 | 983.3 |
| 20260506073047 | 55 | 90 | 0.0 | 2.0 | 0.00 | 0.00 | 0.00 | 80 | 983.4 |
| 20260506071545 | 55 | 315 | 0.0 | 5.0 | 0.00 | 0.00 | 0.00 | 80 | 983.3 |
| 20260506061543 | 55 | 92 | 2.0 | 7.0 | 0.00 | 0.00 | 0.00 | 79 | 984.3 |
| 20260506044531 | 55 | 108 | 1.0 | 6.0 | 0.00 | 0.00 | 0.00 | 76 | 984.9 |
| 20260506043029 | 55 | 87 | 2.0 | 9.0 | 0.00 | 0.00 | 0.00 | 75 | 984.9 |
| 20260506041528 | 55 | 148 | 2.0 | 8.0 | 0.00 | 0.00 | 0.00 | 74 | 985.1 |
| 20260506040026 | 55 | 316 | 0.0 | 6.0 | 0.00 | 0.00 | 0.00 | 74 | 985.3 |
| 20260506034530 | 55 | 63 | 2.0 | 6.0 | 0.00 | 0.00 | 0.00 | 74 | 985.3 |
| 20260506033023 | 55 | 315 | 1.0 | 4.0 | 0.00 | 0.00 | 0.00 | 75 | 985.5 |
| 20260506031522 | 55 | 112 | 1.0 | 4.0 | 0.00 | 0.00 | 0.00 | 74 | 985.6 |
| 20260506030035 | 55 | 229 | 1.0 | 5.0 | 0.00 | 0.00 | 0.00 | 75 | 985.8 |
| 20260506024539 | 55 | 129 | 1.0 | 10.0 | 0.00 | 0.00 | 0.00 | 74 | 986.0 |
| 20260506023015 | 55 | 87 | 3.0 | 8.0 | 0.00 | 0.00 | 0.00 | 74 | 986.1 |
| 20260506021512 | 55 | 105 | 1.0 | 8.0 | 0.00 | 0.00 | 0.00 | 74 | 986.3 |
| 20260506020010 | 55 | 85 | 2.0 | 6.0 | 0.00 | 0.00 | 0.00 | 76 | 986.6 |
| 20260506014506 | 54 | 100 | 3.0 | 8.0 | 0.00 | 0.00 | 0.00 | 76 | 986.9 |
| 20260506013007 | 54 | 69 | 3.0 | 9.0 | 0.00 | 0.00 | 0.00 | 76 | 987.2 |
| 20260506011610 | 54 | 236 | 0.0 | 3.0 | 0.00 | 0.00 | 0.00 | 79 | 987.5 |
| 20260506010058 | 53 | 119 | 1.0 | 5.0 | 0.00 | 0.00 | 0.00 | 81 | 987.6 |
| 20260506004556 | 53 | 128 | 0.0 | 3.0 | 0.00 | 0.00 | 0.00 | 83 | 987.6 |
| 20260506003055 | 52 | 103 | 1.0 | 3.0 | 0.00 | 0.00 | 0.00 | 84 | 987.7 |
| 20260506001550 | 52 | 103 | 0.0 | 2.0 | 0.00 | 0.00 | 0.00 | 87 | 987.8 |
| 20260506000050 | 52 | 103 | 0.0 | 3.0 | 0.00 | 0.00 | 0.00 | 89 | 987.9 |
| 20260505234542 | 51 | 270 | 0.0 | 0.0 | 0.00 | 0.00 | 0.00 | 90 | 987.8 |
| 20260505233041 | 51 | 278 | 0.0 | 1.0 | 0.00 | 0.00 | 0.00 | 89 | 987.9 |
| 20260505231540 | 51 | 94 | 0.0 | 0.0 | 0.00 | 0.00 | 0.00 | 90 | 987.9 |
| 20260505230050 | 50 | 66 | 0.0 | 1.0 | 0.00 | 0.00 | 0.00 | 90 | 987.9 |
| 20260505224535 | 50 | 95 | 0.0 | 1.0 | 0.00 | 0.00 | 0.00 | 93 | 987.9 |
| 20260505223043 | 49 | 87 | 0.0 | 2.0 | 0.00 | 0.00 | 0.00 | 94 | 987.9 |
| 20260505221536 | 49 | 85 | 1.0 | 3.0 | 0.00 | 0.00 | 0.00 | 94 | 988.0 |
| 20260505220038 | 48 | 95 | 0.0 | 2.0 | 0.00 | 0.00 | 0.00 | 96 | 988.0 |
| 20260505214532 | 48 | 324 | 0.0 | 0.0 | 0.00 | 0.00 | 0.00 | 96 | 988.0 |
| 20260505213049 | 47 | 323 | 0.0 | 0.0 | 0.00 | 0.00 | 0.00 | 96 | 988.0 |
| 20260505211531 | 47 | 319 | 0.0 | 0.0 | 0.00 | 0.00 | 0.00 | 96 | 987.9 |
| 20260505210030 | 47 | 319 | 0.0 | 0.0 | 0.00 | 0.00 | 0.00 | 96 | 987.9 |
| 20260505204530 | 47 | 318 | 0.0 | 0.0 | 0.00 | 0.00 | 0.00 | 95 | 987.9 |
| 20260505203041 | 47 | 319 | 0.0 | 0.0 | 0.00 | 0.00 | 0.00 | 95 | 987.9 |
| 20260505201528 | 47 | 319 | 0.0 | 0.0 | 0.00 | 0.00 | 0.00 | 95 | 987.9 |
| 20260505200034 | 47 | 319 | 0.0 | 0.0 | 0.00 | 0.00 | 0.00 | 95 | 987.9 |
| 20260505194527 | 47 | 319 | 0.0 | 0.0 | 0.00 | 0.00 | 0.00 | 95 | 987.9 |
| 20260505193026 | 47 | 318 | 0.0 | 0.0 | 0.00 | 0.00 | 0.00 | 95 | 987.9 |
| 20260505191526 | 47 | 319 | 0.0 | 1.0 | 0.00 | 0.00 | 0.00 | 95 | 987.8 |
| 20260505190024 | 47 | 321 | 0.0 | 0.0 | 0.00 | 0.00 | 0.00 | 95 | 987.9 |
| 20260505184525 | 47 | 319 | 0.0 | 0.0 | 0.00 | 0.00 | 0.00 | 94 | 987.9 |
| 20260505183021 | 47 | 321 | 0.0 | 0.0 | 0.00 | 0.00 | 0.00 | 94 | 987.9 |
| 20260505181520 | 48 | 317 | 0.0 | 0.0 | 0.00 | 0.00 | 0.00 | 94 | 987.9 |
| 20260505180019 | 48 | 319 | 0.0 | 0.0 | 0.00 | 0.00 | 0.00 | 94 | 987.8 |
| 20260505174618 | 48 | 319 | 0.0 | 0.0 | 0.00 | 0.00 | 0.00 | 94 | 987.9 |
| 20260505173035 | 48 | 321 | 0.0 | 2.0 | 0.00 | 0.00 | 0.00 | 94 | 988.1 |
| 20260505171518 | 48 | 302 | 0.0 | 3.0 | 0.00 | 0.00 | 0.00 | 93 | 988.2 |
| 20260505170022 | 48 | 243 | 0.0 | 0.0 | 0.00 | 0.00 | 0.00 | 93 | 988.1 |
| 20260505164530 | 48 | 143 | 0.0 | 0.0 | 0.00 | 0.00 | 0.00 | 93 | 988.3 |
| 20260505163014 | 48 | 107 | 0.0 | 0.0 | 0.00 | 0.00 | 0.00 | 94 | 988.4 |
| 20260505161508 | 48 | 107 | 0.0 | 0.0 | 0.00 | 0.00 | 0.00 | 93 | 988.6 |
| 20260505153010 | 48 | 108 | 0.0 | 0.0 | 0.00 | 0.00 | 0.00 | 92 | 988.8 |
| 20260505151503 | 48 | 105 | 0.0 | 0.0 | 0.00 | 0.00 | 0.00 | 91 | 988.8 |
| 20260505140104 | 50 | 122 | 0.0 | 1.0 | 0.00 | 0.00 | 0.00 | 90 | 988.9 |
| 20260505124549 | 51 | 291 | 0.0 | 0.0 | 0.00 | 0.00 | 0.00 | 89 | 989.3 |
| 20260505123049 | 52 | 293 | 0.0 | 2.0 | 0.00 | 0.00 | 0.00 | 88 | 989.3 |
| 20260505121547 | 51 | 94 | 0.0 | 0.0 | 0.00 | 0.00 | 0.00 | 90 | 989.5 |
| 20260505120047 | 52 | 92 | 0.0 | 1.0 | 0.00 | 0.00 | 0.00 | 89 | 989.6 |
| 20260505114548 | 52 | 129 | 0.0 | 2.0 | 0.00 | 0.00 | 0.00 | 89 | 989.6 |